sensor_id;sensor_type;location;lat;lon;timestamp;pressure;altitude;pressure_sealevel;temperature;humidity
72925;BME280;61070;50.794;7.054;2023-05-24T00:01:26;101536.66;;;9.73;77.13
72925;BME280;61070;50.794;7.054;2023-05-24T00:03:52;101545.47;;;9.72;77.20
72925;BME280;61070;50.794;7.054;2023-05-24T00:06:18;101549.81;;;9.60;77.58
72925;BME280;61070;50.794;7.054;2023-05-24T00:08:45;101547.16;;;9.57;77.79
72925;BME280;61070;50.794;7.054;2023-05-24T00:11:10;101555.06;;;9.53;78.07
72925;BME280;61070;50.794;7.054;2023-05-24T00:13:36;101549.78;;;9.56;77.92
72925;BME280;61070;50.794;7.054;2023-05-24T00:16:01;101555.22;;;9.77;76.96
72925;BME280;61070;50.794;7.054;2023-05-24T00:18:26;101553.34;;;9.62;77.77
72925;BME280;61070;50.794;7.054;2023-05-24T00:20:52;101556.03;;;9.66;77.04
72925;BME280;61070;50.794;7.054;2023-05-24T00:23:21;101556.84;;;9.58;77.41
72925;BME280;61070;50.794;7.054;2023-05-24T00:25:46;101566.63;;;9.72;76.72
72925;BME280;61070;50.794;7.054;2023-05-24T00:28:12;101562.16;;;9.57;77.45
72925;BME280;61070;50.794;7.054;2023-05-24T00:30:37;101567.41;;;9.52;77.78
72925;BME280;61070;50.794;7.054;2023-05-24T00:33:02;101565.59;;;9.48;77.46
72925;BME280;61070;50.794;7.054;2023-05-24T00:35:27;101564.72;;;9.49;77.93
72925;BME280;61070;50.794;7.054;2023-05-24T00:37:53;101568.31;;;9.57;76.83
72925;BME280;61070;50.794;7.054;2023-05-24T00:40:18;101576.25;;;9.54;77.25
72925;BME280;61070;50.794;7.054;2023-05-24T00:42:43;101569.19;;;9.55;77.29
72925;BME280;61070;50.794;7.054;2023-05-24T00:45:09;101572.72;;;9.57;76.80
72925;BME280;61070;50.794;7.054;2023-05-24T00:47:35;101575.28;;;9.46;77.27
72925;BME280;61070;50.794;7.054;2023-05-24T00:50:01;101569.09;;;9.41;77.68
72925;BME280;61070;50.794;7.054;2023-05-24T00:52:27;101565.53;;;9.36;77.69
72925;BME280;61070;50.794;7.054;2023-05-24T00:54:52;101566.41;;;9.33;77.93
72925;BME280;61070;50.794;7.054;2023-05-24T00:57:18;101556.63;;;9.23;78.23
72925;BME280;61070;50.794;7.054;2023-05-24T00:59:43;101561.03;;;9.23;78.21
72925;BME280;61070;50.794;7.054;2023-05-24T01:02:10;101565.50;;;9.30;77.96
72925;BME280;61070;50.794;7.054;2023-05-24T01:04:35;101567.19;;;9.20;78.80
72925;BME280;61070;50.794;7.054;2023-05-24T01:07:15;101564.47;;;9.13;79.03
72925;BME280;61070;50.794;7.054;2023-05-24T01:09:53;101562.72;;;9.15;78.80
72925;BME280;61070;50.794;7.054;2023-05-24T01:15:14;101554.78;;;9.10;78.58
72925;BME280;61070;50.794;7.054;2023-05-24T01:17:53;101567.81;;;8.90;79.33
72925;BME280;61070;50.794;7.054;2023-05-24T01:20:27;101574.06;;;8.98;79.27
72925;BME280;61070;50.794;7.054;2023-05-24T01:26:17;101560.84;;;9.00;78.25
72925;BME280;61070;50.794;7.054;2023-05-24T01:28:43;101568.78;;;8.98;78.58
72925;BME280;61070;50.794;7.054;2023-05-24T01:31:11;101558.19;;;8.98;79.17
72925;BME280;61070;50.794;7.054;2023-05-24T01:33:43;101562.69;;;9.09;78.31
72925;BME280;61070;50.794;7.054;2023-05-24T01:36:09;101565.16;;;8.89;78.35
72925;BME280;61070;50.794;7.054;2023-05-24T01:38:35;101560.78;;;8.92;79.56
72925;BME280;61070;50.794;7.054;2023-05-24T01:41:21;101557.19;;;8.84;79.65
72925;BME280;61070;50.794;7.054;2023-05-24T01:43:52;101553.63;;;8.82;79.68
72925;BME280;61070;50.794;7.054;2023-05-24T01:46:34;101555.44;;;8.86;79.74
72925;BME280;61070;50.794;7.054;2023-05-24T01:51:53;101557.06;;;8.72;80.50
72925;BME280;61070;50.794;7.054;2023-05-24T01:54:25;101557.94;;;8.71;80.89
72925;BME280;61070;50.794;7.054;2023-05-24T01:56:52;101560.56;;;8.68;81.07
72925;BME280;61070;50.794;7.054;2023-05-24T01:59:21;101558.75;;;8.64;81.39
72925;BME280;61070;50.794;7.054;2023-05-24T02:01:46;101551.72;;;8.64;81.51
72925;BME280;61070;50.794;7.054;2023-05-24T02:04:12;101556.13;;;8.64;80.99
72925;BME280;61070;50.794;7.054;2023-05-24T02:06:38;101554.34;;;8.61;81.53
72925;BME280;61070;50.794;7.054;2023-05-24T02:09:03;101554.38;;;8.66;81.21
72925;BME280;61070;50.794;7.054;2023-05-24T02:11:28;101544.69;;;8.65;81.15
72925;BME280;61070;50.794;7.054;2023-05-24T02:13:53;101548.13;;;8.56;81.15
72925;BME280;61070;50.794;7.054;2023-05-24T02:16:19;101545.44;;;8.52;80.97
72925;BME280;61070;50.794;7.054;2023-05-24T02:18:44;101547.19;;;8.50;81.45
72925;BME280;61070;50.794;7.054;2023-05-24T02:21:11;101541.84;;;8.46;81.26
72925;BME280;61070;50.794;7.054;2023-05-24T02:23:37;101542.72;;;8.45;81.14
72925;BME280;61070;50.794;7.054;2023-05-24T02:26:02;101546.22;;;8.41;81.58
72925;BME280;61070;50.794;7.054;2023-05-24T02:28:27;101547.13;;;8.46;82.00
72925;BME280;61070;50.794;7.054;2023-05-24T02:30:56;101547.97;;;8.42;81.64
72925;BME280;61070;50.794;7.054;2023-05-24T02:33:21;101547.00;;;8.36;81.83
72925;BME280;61070;50.794;7.054;2023-05-24T02:35:49;101539.91;;;8.32;82.23
72925;BME280;61070;50.794;7.054;2023-05-24T02:38:15;101538.16;;;8.32;82.61
72925;BME280;61070;50.794;7.054;2023-05-24T02:40:40;101548.69;;;8.31;82.45
72925;BME280;61070;50.794;7.054;2023-05-24T02:43:05;101548.69;;;8.31;82.29
72925;BME280;61070;50.794;7.054;2023-05-24T02:45:31;101546.06;;;8.29;83.20
72925;BME280;61070;50.794;7.054;2023-05-24T02:47:56;101554.84;;;8.28;82.85
72925;BME280;61070;50.794;7.054;2023-05-24T02:50:21;101550.47;;;8.33;82.56
72925;BME280;61070;50.794;7.054;2023-05-24T02:52:47;101553.06;;;8.27;82.90
72925;BME280;61070;50.794;7.054;2023-05-24T02:55:12;101548.59;;;8.23;83.14
72925;BME280;61070;50.794;7.054;2023-05-24T02:57:37;101539.78;;;8.21;83.70
72925;BME280;61070;50.794;7.054;2023-05-24T03:00:04;101540.78;;;8.29;82.71
72925;BME280;61070;50.794;7.054;2023-05-24T03:02:32;101543.28;;;8.17;83.53
72925;BME280;61070;50.794;7.054;2023-05-24T03:04:58;101537.94;;;8.14;83.99
72925;BME280;61070;50.794;7.054;2023-05-24T03:07:23;101533.53;;;8.13;84.35
72925;BME280;61070;50.794;7.054;2023-05-24T03:09:48;101535.22;;;8.06;84.46
72925;BME280;61070;50.794;7.054;2023-05-24T03:12:14;101541.41;;;8.07;84.88
72925;BME280;61070;50.794;7.054;2023-05-24T03:14:39;101545.78;;;8.05;85.16
72925;BME280;61070;50.794;7.054;2023-05-24T03:17:05;101527.34;;;8.09;85.06
72925;BME280;61070;50.794;7.054;2023-05-24T03:19:30;101523.84;;;8.10;84.91
72925;BME280;61070;50.794;7.054;2023-05-24T03:21:55;101528.22;;;8.08;85.01
72925;BME280;61070;50.794;7.054;2023-05-24T03:24:21;101524.69;;;8.06;84.95
72925;BME280;61070;50.794;7.054;2023-05-24T03:26:46;101515.88;;;8.06;85.40
72925;BME280;61070;50.794;7.054;2023-05-24T03:29:11;101525.47;;;8.02;85.74
72925;BME280;61070;50.794;7.054;2023-05-24T03:31:37;101525.47;;;7.99;86.03
72925;BME280;61070;50.794;7.054;2023-05-24T03:34:02;101524.47;;;7.91;86.77
72925;BME280;61070;50.794;7.054;2023-05-24T03:36:27;101529.81;;;7.96;87.29
72925;BME280;61070;50.794;7.054;2023-05-24T03:38:53;101540.41;;;7.99;87.41
72925;BME280;61070;50.794;7.054;2023-05-24T03:41:19;101537.63;;;7.88;88.66
72925;BME280;61070;50.794;7.054;2023-05-24T03:43:44;101546.41;;;7.87;88.72
72925;BME280;61070;50.794;7.054;2023-05-24T03:46:09;101537.69;;;7.93;89.43
72925;BME280;61070;50.794;7.054;2023-05-24T03:48:35;101549.16;;;7.93;88.78
72925;BME280;61070;50.794;7.054;2023-05-24T03:51:00;101552.53;;;7.84;90.07
72925;BME280;61070;50.794;7.054;2023-05-24T03:53:25;101548.94;;;7.79;90.18
72925;BME280;61070;50.794;7.054;2023-05-24T03:55:51;101544.56;;;7.80;90.49
72925;BME280;61070;50.794;7.054;2023-05-24T03:58:16;101549.06;;;7.88;90.54
72925;BME280;61070;50.794;7.054;2023-05-24T04:00:41;101542.03;;;7.87;90.67
72925;BME280;61070;50.794;7.054;2023-05-24T04:03:06;101542.06;;;7.91;90.95
72925;BME280;61070;50.794;7.054;2023-05-24T04:05:33;101539.50;;;7.97;90.35
72925;BME280;61070;50.794;7.054;2023-05-24T04:07:58;101540.41;;;7.99;90.73
72925;BME280;61070;50.794;7.054;2023-05-24T04:10:24;101545.69;;;7.99;90.41
72925;BME280;61070;50.794;7.054;2023-05-24T04:12:49;101546.66;;;8.05;89.92
72925;BME280;61070;50.794;7.054;2023-05-24T04:15:15;101547.44;;;8.00;90.79
72925;BME280;61070;50.794;7.054;2023-05-24T04:17:43;101558.00;;;7.98;90.87
72925;BME280;61070;50.794;7.054;2023-05-24T04:20:10;101559.78;;;8.01;91.42
72925;BME280;61070;50.794;7.054;2023-05-24T04:22:35;101564.38;;;8.15;90.80
72925;BME280;61070;50.794;7.054;2023-05-24T04:25:02;101566.91;;;8.08;90.80
72925;BME280;61070;50.794;7.054;2023-05-24T04:27:27;101571.50;;;8.24;91.41
72925;BME280;61070;50.794;7.054;2023-05-24T04:29:54;101581.94;;;8.15;91.14
72925;BME280;61070;50.794;7.054;2023-05-24T04:32:19;101575.75;;;8.13;90.62
72925;BME280;61070;50.794;7.054;2023-05-24T04:34:45;101579.41;;;8.24;90.65
72925;BME280;61070;50.794;7.054;2023-05-24T04:37:11;101574.84;;;8.11;91.50
72925;BME280;61070;50.794;7.054;2023-05-24T04:39:38;101568.81;;;8.21;92.19
72925;BME280;61070;50.794;7.054;2023-05-24T04:42:03;101576.91;;;8.35;91.65
72925;BME280;61070;50.794;7.054;2023-05-24T04:44:29;101588.28;;;8.28;91.98
72925;BME280;61070;50.794;7.054;2023-05-24T04:46:54;101579.47;;;8.27;91.27
72925;BME280;61070;50.794;7.054;2023-05-24T04:49:19;101584.03;;;8.39;90.92
72925;BME280;61070;50.794;7.054;2023-05-24T04:51:45;101586.72;;;8.46;90.92
72925;BME280;61070;50.794;7.054;2023-05-24T04:54:10;101590.34;;;8.55;90.72
72925;BME280;61070;50.794;7.054;2023-05-24T04:56:37;101591.28;;;8.60;90.41
72925;BME280;61070;50.794;7.054;2023-05-24T04:59:08;101603.59;;;8.59;90.71
72925;BME280;61070;50.794;7.054;2023-05-24T05:01:34;101592.97;;;8.52;91.13
72925;BME280;61070;50.794;7.054;2023-05-24T05:04:01;101593.16;;;8.71;90.84
72925;BME280;61070;50.794;7.054;2023-05-24T05:06:28;101603.91;;;8.90;89.33
72925;BME280;61070;50.794;7.054;2023-05-24T05:08:53;101596.94;;;8.98;88.13
72925;BME280;61070;50.794;7.054;2023-05-24T05:11:19;101615.34;;;8.86;89.24
72925;BME280;61070;50.794;7.054;2023-05-24T05:13:45;101607.63;;;9.07;88.64
72925;BME280;61070;50.794;7.054;2023-05-24T05:16:10;101611.06;;;8.98;88.59
72925;BME280;61070;50.794;7.054;2023-05-24T05:18:36;101612.91;;;9.07;89.05
72925;BME280;61070;50.794;7.054;2023-05-24T05:21:01;101618.97;;;8.97;89.96
72925;BME280;61070;50.794;7.054;2023-05-24T05:23:27;101614.69;;;9.11;89.75
72925;BME280;61070;50.794;7.054;2023-05-24T05:25:53;101616.47;;;9.17;89.41
72925;BME280;61070;50.794;7.054;2023-05-24T05:28:18;101612.91;;;9.10;89.92
72925;BME280;61070;50.794;7.054;2023-05-24T05:30:43;101622.59;;;9.08;90.08
72925;BME280;61070;50.794;7.054;2023-05-24T05:33:08;101619.09;;;9.14;89.15
72925;BME280;61070;50.794;7.054;2023-05-24T05:35:34;101618.28;;;9.19;89.42
72925;BME280;61070;50.794;7.054;2023-05-24T05:37:59;101623.53;;;9.16;89.87
72925;BME280;61070;50.794;7.054;2023-05-24T05:40:24;101622.69;;;9.20;89.59
72925;BME280;61070;50.794;7.054;2023-05-24T05:42:50;101612.22;;;9.34;89.30
72925;BME280;61070;50.794;7.054;2023-05-24T05:45:15;101616.63;;;9.30;88.60
72925;BME280;61070;50.794;7.054;2023-05-24T05:47:41;101607.81;;;9.30;88.92
72925;BME280;61070;50.794;7.054;2023-05-24T05:50:07;101620.22;;;9.42;88.63
72925;BME280;61070;50.794;7.054;2023-05-24T05:52:33;101623.72;;;9.39;87.95
72925;BME280;61070;50.794;7.054;2023-05-24T05:54:58;101621.22;;;9.56;88.58
72925;BME280;61070;50.794;7.054;2023-05-24T05:57:25;101625.53;;;9.42;88.04
72925;BME280;61070;50.794;7.054;2023-05-24T05:59:51;101626.59;;;9.73;87.85
72925;BME280;61070;50.794;7.054;2023-05-24T06:02:16;101622.31;;;9.93;87.36
72925;BME280;61070;50.794;7.054;2023-05-24T06:04:44;101621.47;;;9.97;87.17
72925;BME280;61070;50.794;7.054;2023-05-24T06:07:09;101624.06;;;9.89;87.21
72925;BME280;61070;50.794;7.054;2023-05-24T06:09:34;101635.47;;;9.75;88.46
72925;BME280;61070;50.794;7.054;2023-05-24T06:11:59;101636.34;;;9.78;88.30
72925;BME280;61070;50.794;7.054;2023-05-24T06:14:25;101636.38;;;9.83;87.94
72925;BME280;61070;50.794;7.054;2023-05-24T06:16:51;101643.50;;;9.96;88.51
72925;BME280;61070;50.794;7.054;2023-05-24T06:19:18;101626.78;;;10.06;88.26
72925;BME280;61070;50.794;7.054;2023-05-24T06:21:44;101620.78;;;10.35;86.37
72925;BME280;61070;50.794;7.054;2023-05-24T06:24:18;101618.19;;;10.44;86.77
72925;BME280;61070;50.794;7.054;2023-05-24T06:26:47;101608.50;;;10.57;85.70
72925;BME280;61070;50.794;7.054;2023-05-24T06:29:13;101608.47;;;10.47;83.49
72925;BME280;61070;50.794;7.054;2023-05-24T06:31:38;101601.38;;;10.36;84.54
72925;BME280;61070;50.794;7.054;2023-05-24T06:34:04;101589.94;;;10.43;84.19
72925;BME280;61070;50.794;7.054;2023-05-24T06:36:29;101579.38;;;10.61;83.05
72925;BME280;61070;50.794;7.054;2023-05-24T06:38:58;101581.19;;;10.77;82.61
72925;BME280;61070;50.794;7.054;2023-05-24T06:41:23;101582.03;;;10.75;81.25
72925;BME280;61070;50.794;7.054;2023-05-24T06:43:48;101575.88;;;10.94;81.29
72925;BME280;61070;50.794;7.054;2023-05-24T06:46:14;101578.53;;;10.93;81.44
72925;BME280;61070;50.794;7.054;2023-05-24T06:48:42;101585.63;;;11.21;79.61
72925;BME280;61070;50.794;7.054;2023-05-24T06:51:07;101584.75;;;11.22;79.46
72925;BME280;61070;50.794;7.054;2023-05-24T06:53:33;101596.22;;;11.38;78.25
72925;BME280;61070;50.794;7.054;2023-05-24T06:55:58;101603.28;;;11.36;78.05
72925;BME280;61070;50.794;7.054;2023-05-24T06:58:23;101606.81;;;11.38;78.56
72925;BME280;61070;50.794;7.054;2023-05-24T07:00:48;101618.31;;;11.29;80.02
72925;BME280;61070;50.794;7.054;2023-05-24T07:03:14;101620.97;;;11.35;79.64
72925;BME280;61070;50.794;7.054;2023-05-24T07:05:39;101617.44;;;11.44;78.49
72925;BME280;61070;50.794;7.054;2023-05-24T07:08:05;101620.09;;;11.17;78.04
72925;BME280;61070;50.794;7.054;2023-05-24T07:10:31;101616.56;;;10.99;78.84
72925;BME280;61070;50.794;7.054;2023-05-24T07:12:56;101623.63;;;11.29;77.61
72925;BME280;61070;50.794;7.054;2023-05-24T07:15:21;101623.59;;;11.52;75.61
72925;BME280;61070;50.794;7.054;2023-05-24T07:17:47;101625.38;;;11.82;74.77
72925;BME280;61070;50.794;7.054;2023-05-24T07:20:12;101624.44;;;11.97;74.80
72925;BME280;61070;50.794;7.054;2023-05-24T07:22:39;101625.31;;;12.07;74.33
72925;BME280;61070;50.794;7.054;2023-05-24T07:25:04;101627.03;;;12.17;73.40
72925;BME280;61070;50.794;7.054;2023-05-24T07:27:30;101626.13;;;12.21;70.59
72925;BME280;61070;50.794;7.054;2023-05-24T07:29:55;101627.06;;;12.08;68.44
72925;BME280;61070;50.794;7.054;2023-05-24T07:32:21;101633.28;;;12.05;66.98
72925;BME280;61070;50.794;7.054;2023-05-24T07:34:47;101621.78;;;12.03;66.41
72925;BME280;61070;50.794;7.054;2023-05-24T07:37:12;101634.19;;;11.89;67.51
72925;BME280;61070;50.794;7.054;2023-05-24T07:39:37;101635.03;;;12.14;66.89
72925;BME280;61070;50.794;7.054;2023-05-24T07:42:03;101638.53;;;12.19;66.50
72925;BME280;61070;50.794;7.054;2023-05-24T07:44:28;101639.31;;;12.45;65.75
72925;BME280;61070;50.794;7.054;2023-05-24T07:46:54;101635.75;;;12.54;65.64
72925;BME280;61070;50.794;7.054;2023-05-24T07:49:19;101629.41;;;12.76;64.86
72925;BME280;61070;50.794;7.054;2023-05-24T07:51:45;101633.91;;;12.70;64.68
72925;BME280;61070;50.794;7.054;2023-05-24T07:54:10;101630.41;;;12.59;64.94
72925;BME280;61070;50.794;7.054;2023-05-24T07:56:35;101639.09;;;12.87;65.68
72925;BME280;61070;50.794;7.054;2023-05-24T07:59:01;101638.25;;;12.81;64.45
72925;BME280;61070;50.794;7.054;2023-05-24T08:01:31;101640.91;;;12.78;63.51
72925;BME280;61070;50.794;7.054;2023-05-24T08:03:58;101628.56;;;12.73;64.46
72925;BME280;61070;50.794;7.054;2023-05-24T08:06:24;101626.00;;;12.59;65.64
72925;BME280;61070;50.794;7.054;2023-05-24T08:08:49;101623.34;;;12.58;65.56
72925;BME280;61070;50.794;7.054;2023-05-24T08:11:15;101622.41;;;12.62;66.45
72925;BME280;61070;50.794;7.054;2023-05-24T08:13:40;101622.44;;;12.60;66.09
72925;BME280;61070;50.794;7.054;2023-05-24T08:16:06;101631.19;;;12.77;66.49
72925;BME280;61070;50.794;7.054;2023-05-24T08:18:31;101623.44;;;12.36;67.02
72925;BME280;61070;50.794;7.054;2023-05-24T08:20:57;101628.84;;;12.06;67.69
72925;BME280;61070;50.794;7.054;2023-05-24T08:23:22;101624.38;;;12.24;67.47
72925;BME280;61070;50.794;7.054;2023-05-24T08:25:47;101632.34;;;12.17;67.99
72925;BME280;61070;50.794;7.054;2023-05-24T08:28:13;101633.97;;;12.51;67.10
72925;BME280;61070;50.794;7.054;2023-05-24T08:30:38;101625.03;;;12.68;65.46
72925;BME280;61070;50.794;7.054;2023-05-24T08:33:03;101614.78;;;13.42;64.79
72925;BME280;61070;50.794;7.054;2023-05-24T08:35:29;101631.25;;;13.80;62.85
72925;BME280;61070;50.794;7.054;2023-05-24T08:37:54;101629.59;;;13.73;61.88
72925;BME280;61070;50.794;7.054;2023-05-24T08:40:20;101626.53;;;13.15;61.00
72925;BME280;61070;50.794;7.054;2023-05-24T08:42:48;101625.50;;;13.37;60.62
72925;BME280;61070;50.794;7.054;2023-05-24T08:45:14;101629.75;;;13.53;59.37
72925;BME280;61070;50.794;7.054;2023-05-24T08:47:40;101633.25;;;13.61;59.13
72925;BME280;61070;50.794;7.054;2023-05-24T08:50:07;101627.34;;;13.27;61.34
72925;BME280;61070;50.794;7.054;2023-05-24T08:52:33;101639.94;;;12.95;62.38
72925;BME280;61070;50.794;7.054;2023-05-24T08:54:59;101635.69;;;12.65;63.50
72925;BME280;61070;50.794;7.054;2023-05-24T08:57:27;101639.13;;;12.79;63.49
72925;BME280;61070;50.794;7.054;2023-05-24T08:59:54;101632.06;;;12.78;64.38
72925;BME280;61070;50.794;7.054;2023-05-24T09:02:20;101629.47;;;12.70;63.49
72925;BME280;61070;50.794;7.054;2023-05-24T09:04:48;101632.75;;;13.09;62.91
72925;BME280;61070;50.794;7.054;2023-05-24T09:07:19;101619.63;;;12.85;63.00
72925;BME280;61070;50.794;7.054;2023-05-24T09:10:05;101616.63;;;13.33;63.20
72925;BME280;61070;50.794;7.054;2023-05-24T09:12:31;101619.06;;;13.59;61.61
72925;BME280;61070;50.794;7.054;2023-05-24T09:14:57;101611.91;;;13.64;60.29
72925;BME280;61070;50.794;7.054;2023-05-24T09:17:23;101615.50;;;13.57;61.57
72925;BME280;61070;50.794;7.054;2023-05-24T09:19:50;101610.78;;;13.88;61.55
72925;BME280;61070;50.794;7.054;2023-05-24T09:22:16;101613.53;;;13.79;61.85
72925;BME280;61070;50.794;7.054;2023-05-24T09:24:51;101619.63;;;13.90;61.71
72925;BME280;61070;50.794;7.054;2023-05-24T09:27:18;101612.56;;;13.86;61.54
72925;BME280;61070;50.794;7.054;2023-05-24T09:29:47;101612.34;;;14.06;60.93
72925;BME280;61070;50.794;7.054;2023-05-24T09:32:14;101611.31;;;14.19;59.91
72925;BME280;61070;50.794;7.054;2023-05-24T09:34:43;101604.56;;;14.63;58.97
72925;BME280;61070;50.794;7.054;2023-05-24T09:37:15;101615.78;;;14.17;57.92
72925;BME280;61070;50.794;7.054;2023-05-24T09:39:42;101606.47;;;14.52;58.57
72925;BME280;61070;50.794;7.054;2023-05-24T09:42:13;101608.72;;;14.12;57.93
72925;BME280;61070;50.794;7.054;2023-05-24T09:44:40;101612.38;;;14.05;57.31
72925;BME280;61070;50.794;7.054;2023-05-24T09:47:06;101611.13;;;14.33;57.73
72925;BME280;61070;50.794;7.054;2023-05-24T09:49:36;101610.97;;;14.50;56.60
72925;BME280;61070;50.794;7.054;2023-05-24T09:52:01;101608.69;;;14.13;57.28
72925;BME280;61070;50.794;7.054;2023-05-24T09:54:27;101600.25;;;14.53;56.52
72925;BME280;61070;50.794;7.054;2023-05-24T09:56:52;101586.81;;;14.59;56.42
72925;BME280;61070;50.794;7.054;2023-05-24T09:59:18;101589.63;;;14.50;55.74
72925;BME280;61070;50.794;7.054;2023-05-24T10:01:44;101594.19;;;14.39;57.06
72925;BME280;61070;50.794;7.054;2023-05-24T10:04:10;101583.75;;;14.87;56.34
72925;BME280;61070;50.794;7.054;2023-05-24T10:06:39;101581.81;;;14.96;56.45
72925;BME280;61070;50.794;7.054;2023-05-24T10:09:07;101585.78;;;14.69;54.66
72925;BME280;61070;50.794;7.054;2023-05-24T10:11:35;101576.53;;;14.92;54.66
72925;BME280;61070;50.794;7.054;2023-05-24T10:14:04;101582.91;;;14.81;54.56
72925;BME280;61070;50.794;7.054;2023-05-24T10:16:31;101573.97;;;14.87;54.52
72925;BME280;61070;50.794;7.054;2023-05-24T10:18:56;101575.22;;;15.19;54.46
72925;BME280;61070;50.794;7.054;2023-05-24T10:21:22;101570.78;;;15.19;54.35
72925;BME280;61070;50.794;7.054;2023-05-24T10:23:50;101574.16;;;15.27;54.67
72925;BME280;61070;50.794;7.054;2023-05-24T10:26:19;101573.28;;;14.71;54.72
72925;BME280;61070;50.794;7.054;2023-05-24T10:28:49;101572.97;;;14.93;55.75
72925;BME280;61070;50.794;7.054;2023-05-24T10:31:23;101580.34;;;15.32;54.64
72925;BME280;61070;50.794;7.054;2023-05-24T10:33:50;101575.84;;;15.34;52.66
72925;BME280;61070;50.794;7.054;2023-05-24T10:36:16;101584.00;;;15.78;53.21
72925;BME280;61070;50.794;7.054;2023-05-24T10:38:45;101574.25;;;15.73;53.88
72925;BME280;61070;50.794;7.054;2023-05-24T10:41:11;101572.50;;;15.72;53.99
72925;BME280;61070;50.794;7.054;2023-05-24T10:43:38;101583.81;;;15.85;53.44
72925;BME280;61070;50.794;7.054;2023-05-24T10:46:03;101578.72;;;15.73;53.25
72925;BME280;61070;50.794;7.054;2023-05-24T10:50:55;101590.63;;;16.01;52.66
72925;BME280;61070;50.794;7.054;2023-05-24T10:53:26;101586.13;;;16.04;52.13
72925;BME280;61070;50.794;7.054;2023-05-24T10:55:58;101586.00;;;16.11;51.72
72925;BME280;61070;50.794;7.054;2023-05-24T10:59:04;101580.13;;;15.92;51.53
72925;BME280;61070;50.794;7.054;2023-05-24T11:01:32;101575.84;;;15.84;52.73
72925;BME280;61070;50.794;7.054;2023-05-24T11:04:11;101573.34;;;15.76;52.60
72925;BME280;61070;50.794;7.054;2023-05-24T11:09:13;101562.47;;;15.84;51.83
72925;BME280;61070;50.794;7.054;2023-05-24T11:11:38;101566.28;;;15.72;54.67
72925;BME280;61070;50.794;7.054;2023-05-24T11:14:04;101565.94;;;15.39;54.73
72925;BME280;61070;50.794;7.054;2023-05-24T11:16:35;101568.91;;;15.75;54.66
72925;BME280;61070;50.794;7.054;2023-05-24T11:19:15;101567.56;;;15.48;55.14
72925;BME280;61070;50.794;7.054;2023-05-24T11:21:46;101565.91;;;15.42;56.05
72925;BME280;61070;50.794;7.054;2023-05-24T11:24:12;101557.75;;;15.50;55.60
72925;BME280;61070;50.794;7.054;2023-05-24T11:26:38;101559.41;;;15.57;56.05
72925;BME280;61070;50.794;7.054;2023-05-24T11:29:04;101551.03;;;15.29;56.68
72925;BME280;61070;50.794;7.054;2023-05-24T11:31:30;101552.69;;;14.81;56.27
72925;BME280;61070;50.794;7.054;2023-05-24T11:33:55;101551.63;;;14.93;56.41
72925;BME280;61070;50.794;7.054;2023-05-24T11:36:21;101551.94;;;15.27;57.72
72925;BME280;61070;50.794;7.054;2023-05-24T11:38:47;101545.97;;;15.63;57.07
72925;BME280;61070;50.794;7.054;2023-05-24T11:41:13;101541.72;;;15.98;54.69
72925;BME280;61070;50.794;7.054;2023-05-24T11:43:39;101546.41;;;15.85;54.52
72925;BME280;61070;50.794;7.054;2023-05-24T11:46:06;101533.88;;;16.71;54.13
72925;BME280;61070;50.794;7.054;2023-05-24T11:48:31;101535.94;;;17.31;52.50
72925;BME280;61070;50.794;7.054;2023-05-24T11:50:57;101536.13;;;16.89;52.21
72925;BME280;61070;50.794;7.054;2023-05-24T11:53:24;101534.97;;;16.60;52.10
72925;BME280;61070;50.794;7.054;2023-05-24T11:55:51;101532.47;;;16.14;54.34
72925;BME280;61070;50.794;7.054;2023-05-24T11:58:22;101527.47;;;15.96;53.88
72925;BME280;61070;50.794;7.054;2023-05-24T12:00:48;101539.53;;;15.73;53.22
72925;BME280;61070;50.794;7.054;2023-05-24T12:03:14;101543.72;;;15.40;53.45
72925;BME280;61070;50.794;7.054;2023-05-24T12:05:39;101542.78;;;15.41;54.52
72925;BME280;61070;50.794;7.054;2023-05-24T12:08:10;101533.94;;;14.87;55.77
72925;BME280;61070;50.794;7.054;2023-05-24T12:10:42;101540.81;;;15.02;56.33
72925;BME280;61070;50.794;7.054;2023-05-24T12:13:24;101540.88;;;14.99;56.71
72925;BME280;61070;50.794;7.054;2023-05-24T12:15:51;101538.19;;;14.99;56.73
72925;BME280;61070;50.794;7.054;2023-05-24T12:18:21;101539.97;;;15.00;56.96
72925;BME280;61070;50.794;7.054;2023-05-24T12:20:48;101544.28;;;15.08;56.75
72925;BME280;61070;50.794;7.054;2023-05-24T12:23:14;101549.78;;;14.98;57.27
72925;BME280;61070;50.794;7.054;2023-05-24T12:25:41;101544.53;;;14.92;56.55
72925;BME280;61070;50.794;7.054;2023-05-24T12:28:06;101548.69;;;15.09;55.57
72925;BME280;61070;50.794;7.054;2023-05-24T12:30:31;101548.56;;;14.60;56.08
72925;BME280;61070;50.794;7.054;2023-05-24T12:32:57;101543.94;;;14.71;57.10
72925;BME280;61070;50.794;7.054;2023-05-24T12:35:23;101540.56;;;14.62;56.94
72925;BME280;61070;50.794;7.054;2023-05-24T12:37:49;101545.19;;;14.50;57.55
72925;BME280;61070;50.794;7.054;2023-05-24T12:40:19;101543.22;;;14.63;58.03
72925;BME280;61070;50.794;7.054;2023-05-24T12:42:55;101541.56;;;15.10;57.88
72925;BME280;61070;50.794;7.054;2023-05-24T12:45:22;101543.16;;;15.22;56.82
72925;BME280;61070;50.794;7.054;2023-05-24T12:47:53;101546.41;;;14.87;55.64
72925;BME280;61070;50.794;7.054;2023-05-24T12:50:20;101543.34;;;15.09;54.82
72925;BME280;61070;50.794;7.054;2023-05-24T12:52:46;101540.66;;;15.11;55.22
72925;BME280;61070;50.794;7.054;2023-05-24T12:55:15;101538.34;;;15.42;54.73
72925;BME280;61070;50.794;7.054;2023-05-24T12:57:45;101538.44;;;15.36;54.51
72925;BME280;61070;50.794;7.054;2023-05-24T13:00:17;101539.78;;;15.58;54.31
72925;BME280;61070;50.794;7.054;2023-05-24T13:02:43;101537.28;;;15.95;52.61
72925;BME280;61070;50.794;7.054;2023-05-24T13:05:08;101541.25;;;16.19;52.23
72925;BME280;61070;50.794;7.054;2023-05-24T13:07:34;101540.38;;;16.19;51.76